createdAt,value
2022-10-19T00:01:00.622Z,6.58
2022-10-19T00:03:26.957Z,6.56
2022-10-19T00:05:53.289Z,6.67
2022-10-19T00:08:19.630Z,6.74
2022-10-19T00:10:45.960Z,6.56
2022-10-19T00:13:12.288Z,6.67
2022-10-19T00:15:38.604Z,6.29
2022-10-19T00:18:04.931Z,6.57
2022-10-19T00:20:31.278Z,6.82
2022-10-19T00:22:57.622Z,6.78
2022-10-19T00:25:23.950Z,6.77
2022-10-19T00:27:50.306Z,6.72
2022-10-19T00:30:16.655Z,6.86
2022-10-19T00:32:42.988Z,6.65
2022-10-19T00:35:09.312Z,6.85
2022-10-19T00:37:35.642Z,6.90
2022-10-19T00:40:01.981Z,6.71
2022-10-19T00:42:28.325Z,6.59
2022-10-19T00:44:54.658Z,6.77
2022-10-19T00:47:20.980Z,6.55
2022-10-19T00:49:47.324Z,6.70
2022-10-19T00:52:13.661Z,7.04
2022-10-19T00:54:40.005Z,6.24
2022-10-19T00:57:06.336Z,6.93
2022-10-19T00:59:32.686Z,6.93
2022-10-19T01:01:59.019Z,6.65
2022-10-19T01:04:25.357Z,6.83
2022-10-19T01:09:17.921Z,6.57
2022-10-19T01:11:44.253Z,6.60
2022-10-19T01:14:10.575Z,6.56
2022-10-19T01:16:36.897Z,6.58
2022-10-19T01:19:03.241Z,6.58
2022-10-19T01:21:29.582Z,6.53
2022-10-19T01:23:55.912Z,6.73
2022-10-19T01:26:22.246Z,6.31
2022-10-19T01:28:48.622Z,6.42
2022-10-19T01:31:15.041Z,6.70
2022-10-19T01:33:41.396Z,6.58
2022-10-19T01:36:07.728Z,6.74
2022-10-19T01:38:34.067Z,6.89
2022-10-19T01:41:00.392Z,6.69
2022-10-19T01:43:26.726Z,6.86
2022-10-19T01:45:53.058Z,6.75
2022-10-19T01:48:19.384Z,6.45
2022-10-19T01:50:45.708Z,6.87
2022-10-19T01:53:12.041Z,6.97
2022-10-19T01:55:38.384Z,6.96
2022-10-19T01:58:08.229Z,6.98
2022-10-19T02:00:35.976Z,7.14
2022-10-19T02:03:02.322Z,7.11
2022-10-19T02:05:28.655Z,6.65
2022-10-19T02:07:54.996Z,6.92
2022-10-19T02:10:21.325Z,6.87
2022-10-19T02:12:47.670Z,7.06
2022-10-19T02:15:14.174Z,7.28
2022-10-19T02:17:40.499Z,7.30
2022-10-19T02:20:06.837Z,6.84
2022-10-19T02:22:33.519Z,6.71
2022-10-19T02:25:00.143Z,6.63
2022-10-19T02:27:26.493Z,7.07
2022-10-19T02:29:52.825Z,6.87
2022-10-19T02:32:19.162Z,6.92
2022-10-19T02:34:45.496Z,7.01
2022-10-19T02:37:11.834Z,7.13
2022-10-19T02:39:38.168Z,6.99
2022-10-19T02:42:04.494Z,7.08
2022-10-19T02:44:30.837Z,6.83
2022-10-19T02:46:57.169Z,7.10
2022-10-19T02:49:23.509Z,6.88
2022-10-19T02:51:49.841Z,7.14
2022-10-19T02:54:16.179Z,6.99
2022-10-19T02:56:42.517Z,6.68
2022-10-19T02:59:08.843Z,6.96
2022-10-19T03:01:35.183Z,7.03
2022-10-19T03:04:01.530Z,6.86
2022-10-19T03:06:27.869Z,7.19
2022-10-19T03:08:54.193Z,6.79
2022-10-19T03:11:20.519Z,6.74
2022-10-19T03:16:14.109Z,6.81
2022-10-19T03:18:40.445Z,6.77
2022-10-19T03:21:06.781Z,7.51
2022-10-19T03:23:33.114Z,7.46
2022-10-19T03:25:59.450Z,7.34
2022-10-19T03:28:25.815Z,6.60
2022-10-19T03:30:52.154Z,6.84
2022-10-19T03:33:18.533Z,6.73
2022-10-19T03:35:44.913Z,6.65
2022-10-19T03:38:11.245Z,6.77
2022-10-19T03:40:37.584Z,7.15
2022-10-19T03:43:03.924Z,6.83
2022-10-19T03:45:30.264Z,7.30
2022-10-19T03:47:56.592Z,7.14
2022-10-19T03:50:22.934Z,7.11
2022-10-19T03:52:49.335Z,6.84
2022-10-19T03:55:15.761Z,6.65
2022-10-19T03:57:42.095Z,6.67
2022-10-19T04:00:08.447Z,6.64
2022-10-19T04:02:34.784Z,6.76
2022-10-19T04:05:01.126Z,6.70
2022-10-19T04:07:27.464Z,6.21
2022-10-19T04:09:53.803Z,6.03
2022-10-19T04:12:20.143Z,6.09
2022-10-19T04:14:56.985Z,6.27
2022-10-19T04:17:24.101Z,6.05
2022-10-19T04:19:50.440Z,5.88
2022-10-19T04:22:16.773Z,6.20
2022-10-19T04:24:43.108Z,6.06
2022-10-19T04:27:09.445Z,6.16
2022-10-19T04:29:35.788Z,17.87
2022-10-19T04:32:02.125Z,11.40
2022-10-19T04:34:28.458Z,10.46
2022-10-19T04:36:54.791Z,11.07
2022-10-19T04:39:21.138Z,12.41
2022-10-19T04:41:47.483Z,11.52
2022-10-19T04:44:13.906Z,10.90
2022-10-19T04:46:40.292Z,11.01
2022-10-19T04:49:06.677Z,11.60
2022-10-19T04:51:33.092Z,13.40
2022-10-19T04:53:59.935Z,13.94
2022-10-19T04:56:26.518Z,13.94
2022-10-19T04:58:52.852Z,14.66
2022-10-19T05:01:19.272Z,13.81
2022-10-19T05:03:45.687Z,13.49
2022-10-19T05:06:12.067Z,13.26
2022-10-19T05:08:38.403Z,12.61
2022-10-19T05:11:04.745Z,12.85
2022-10-19T05:13:31.084Z,12.83
2022-10-19T05:15:57.421Z,12.81
2022-10-19T05:18:23.770Z,12.54
2022-10-19T05:20:50.110Z,12.41
2022-10-19T05:23:16.458Z,12.31
2022-10-19T05:25:42.796Z,12.62
2022-10-19T05:28:09.134Z,12.10
2022-10-19T05:30:35.479Z,12.01
2022-10-19T05:33:01.830Z,12.01
2022-10-19T05:35:28.177Z,11.77
2022-10-19T05:37:54.512Z,11.60
2022-10-19T05:40:20.873Z,11.22
2022-10-19T05:42:47.204Z,10.82
2022-10-19T05:45:13.541Z,11.29
2022-10-19T05:47:39.871Z,11.12
2022-10-19T05:50:06.204Z,11.30
2022-10-19T05:52:32.549Z,10.78
2022-10-19T05:54:58.889Z,10.67
2022-10-19T05:57:25.224Z,10.76
2022-10-19T05:59:51.573Z,11.15
2022-10-19T06:02:17.905Z,10.59
2022-10-19T06:04:44.258Z,10.08
2022-10-19T06:07:10.606Z,10.12
2022-10-19T06:09:36.936Z,10.04
2022-10-19T06:12:03.285Z,9.75
2022-10-19T06:14:29.638Z,10.03
2022-10-19T06:16:55.958Z,9.79
2022-10-19T06:19:22.285Z,9.84
2022-10-19T06:21:48.663Z,9.51
2022-10-19T06:24:15.001Z,10.08
2022-10-19T06:26:41.338Z,10.14
2022-10-19T06:29:07.684Z,9.51
2022-10-19T06:31:34.043Z,9.48
2022-10-19T06:34:00.409Z,9.70
2022-10-19T06:36:26.769Z,9.14
2022-10-19T06:38:53.119Z,9.08
2022-10-19T06:41:19.479Z,9.24
2022-10-19T06:43:45.814Z,9.42
2022-10-19T06:46:12.154Z,8.79
2022-10-19T06:48:38.564Z,8.67
2022-10-19T06:51:06.289Z,8.80
2022-10-19T06:53:32.930Z,8.80
2022-10-19T06:55:59.278Z,8.58
2022-10-19T06:58:25.622Z,8.29
2022-10-19T07:00:52.006Z,8.37
2022-10-19T07:03:18.381Z,8.26
2022-10-19T07:05:44.716Z,8.59
2022-10-19T07:08:11.060Z,8.47
2022-10-19T07:10:37.427Z,7.95
2022-10-19T07:13:03.804Z,8.14
2022-10-19T07:15:30.210Z,8.41
2022-10-19T07:17:56.549Z,8.27
2022-10-19T07:20:22.884Z,8.09
2022-10-19T07:22:49.237Z,8.58
2022-10-19T07:25:15.576Z,7.84
2022-10-19T07:27:42.165Z,7.59
2022-10-19T07:30:08.690Z,7.99
2022-10-19T07:32:35.077Z,7.80
2022-10-19T07:35:01.419Z,7.67
2022-10-19T07:37:27.756Z,7.80
2022-10-19T07:39:54.092Z,7.82
2022-10-19T07:42:23.390Z,7.56
2022-10-19T07:44:49.723Z,7.86
2022-10-19T07:47:16.057Z,7.70
2022-10-19T07:49:42.398Z,7.61
2022-10-19T07:52:08.730Z,7.65
2022-10-19T07:54:35.076Z,7.32
2022-10-19T07:57:01.399Z,7.77
2022-10-19T07:59:27.740Z,7.16
2022-10-19T08:01:54.123Z,7.45
2022-10-19T08:07:06.833Z,7.31
2022-10-19T08:09:51.935Z,7.25
2022-10-19T08:12:19.462Z,7.00
2022-10-19T08:14:45.801Z,6.95
2022-10-19T08:17:12.144Z,7.28
2022-10-19T08:19:38.493Z,7.19
2022-10-19T08:22:04.811Z,6.94
2022-10-19T08:24:31.159Z,7.19
2022-10-19T08:26:57.484Z,7.09
2022-10-19T08:29:25.555Z,7.19
2022-10-19T08:31:54.149Z,6.99
2022-10-19T08:34:20.644Z,7.12
2022-10-19T08:36:47.012Z,7.14
2022-10-19T08:39:13.339Z,6.91
2022-10-19T08:41:39.709Z,7.16
2022-10-19T08:44:07.714Z,6.66
2022-10-19T08:46:36.384Z,6.79
2022-10-19T08:49:02.723Z,7.10
2022-10-19T08:51:29.049Z,7.13
2022-10-19T08:53:55.425Z,7.15
2022-10-19T08:56:45.873Z,6.90
2022-10-19T08:59:08.095Z,7.08
2022-10-19T09:01:36.920Z,6.79
2022-10-19T09:04:04.132Z,6.93
2022-10-19T09:06:30.460Z,6.51
2022-10-19T09:08:56.855Z,6.73
2022-10-19T09:11:23.207Z,6.74
2022-10-19T09:14:04.210Z,7.07
2022-10-19T09:16:31.662Z,6.28
2022-10-19T09:18:58.001Z,6.81
2022-10-19T09:21:31.002Z,6.63
2022-10-19T09:24:04.278Z,6.62
2022-10-19T09:26:30.612Z,7.06
2022-10-19T09:28:56.961Z,6.63
2022-10-19T09:31:23.279Z,6.47
2022-10-19T09:33:49.612Z,6.54
2022-10-19T09:36:22.555Z,6.45
2022-10-19T09:38:53.972Z,6.78
2022-10-19T09:41:20.319Z,6.66
2022-10-19T09:43:46.652Z,6.28
2022-10-19T09:46:19.777Z,6.83
2022-10-19T09:48:46.756Z,6.61
2022-10-19T09:51:13.107Z,6.48
2022-10-19T09:53:39.448Z,6.63
2022-10-19T09:56:05.815Z,6.82
2022-10-19T09:58:33.212Z,6.18
2022-10-19T10:00:59.820Z,6.66
2022-10-19T10:03:26.163Z,6.36
2022-10-19T10:05:52.499Z,6.27
2022-10-19T10:08:18.823Z,6.68
2022-10-19T10:10:45.147Z,6.34
2022-10-19T10:13:11.482Z,6.16
2022-10-19T10:15:37.814Z,6.64
2022-10-19T10:18:04.136Z,6.51
2022-10-19T10:20:30.473Z,6.05
2022-10-19T10:22:56.810Z,6.33
2022-10-19T10:25:23.153Z,5.81
2022-10-19T10:27:49.480Z,6.22
2022-10-19T10:30:15.829Z,6.06
2022-10-19T10:32:44.512Z,5.96
2022-10-19T10:35:13.632Z,6.00
2022-10-19T10:37:39.977Z,6.09
2022-10-19T10:40:06.314Z,6.20
2022-10-19T10:42:32.934Z,6.58
2022-10-19T10:44:59.554Z,6.02
2022-10-19T10:47:25.898Z,6.15
2022-10-19T10:49:52.221Z,6.32
2022-10-19T10:52:18.543Z,6.31
2022-10-19T10:54:44.886Z,6.26
2022-10-19T10:57:11.291Z,6.27
2022-10-19T10:59:39.431Z,6.34
2022-10-19T11:02:08.142Z,6.39
2022-10-19T11:04:34.497Z,6.38
2022-10-19T11:07:00.841Z,6.52
2022-10-19T11:09:27.190Z,6.40
2022-10-19T11:11:53.544Z,6.25
2022-10-19T11:14:19.894Z,6.11
2022-10-19T11:16:46.226Z,6.39
2022-10-19T11:19:12.617Z,6.43
2022-10-19T11:21:38.987Z,6.48
2022-10-19T11:24:05.316Z,6.39
2022-10-19T11:26:31.643Z,6.35
2022-10-19T11:28:57.994Z,6.32
2022-10-19T11:31:24.346Z,6.00
2022-10-19T11:33:50.664Z,6.26
2022-10-19T11:36:17.006Z,6.19
2022-10-19T11:38:43.358Z,6.24
2022-10-19T11:41:18.176Z,6.51
2022-10-19T11:43:45.117Z,6.32
2022-10-19T11:46:11.452Z,6.26
2022-10-19T11:48:40.373Z,6.07
2022-10-19T11:51:20.842Z,5.98
2022-10-19T11:53:48.288Z,6.09
2022-10-19T11:56:14.605Z,6.16
2022-10-19T11:58:40.942Z,6.30
2022-10-19T12:01:07.298Z,5.83
2022-10-19T12:03:33.637Z,6.37
2022-10-19T12:05:59.972Z,6.07
2022-10-19T12:08:26.348Z,6.28
2022-10-19T12:10:52.720Z,6.10
2022-10-19T12:13:19.055Z,5.97
2022-10-19T12:15:45.390Z,6.20
2022-10-19T12:18:11.750Z,5.86
2022-10-19T12:20:38.070Z,6.02
2022-10-19T12:23:04.423Z,6.01
2022-10-19T12:25:30.783Z,6.16
2022-10-19T12:27:57.125Z,6.07
2022-10-19T12:30:23.462Z,6.24
2022-10-19T12:32:53.475Z,6.04
2022-10-19T12:37:51.952Z,5.94
2022-10-19T12:40:18.275Z,6.22
2022-10-19T12:42:44.594Z,5.78
2022-10-19T12:45:10.940Z,5.78
2022-10-19T12:47:37.546Z,6.00
2022-10-19T12:50:04.092Z,6.20
2022-10-19T12:52:30.435Z,5.97
2022-10-19T12:54:56.767Z,5.83
2022-10-19T12:57:23.137Z,5.95
2022-10-19T12:59:49.476Z,5.81
2022-10-19T13:02:15.840Z,5.64
2022-10-19T13:04:42.164Z,5.69
2022-10-19T13:07:08.576Z,5.84
2022-10-19T13:09:34.976Z,5.86
2022-10-19T13:12:01.308Z,6.13
2022-10-19T13:14:27.646Z,5.71
2022-10-19T13:16:53.976Z,5.78
2022-10-19T13:19:20.322Z,5.69
2022-10-19T13:21:46.654Z,5.52
2022-10-19T13:24:13.002Z,5.22
2022-10-19T13:26:39.343Z,5.44
2022-10-19T13:29:05.672Z,5.72
2022-10-19T13:31:31.991Z,5.82
2022-10-19T13:33:58.325Z,5.48
2022-10-19T13:36:24.667Z,5.61
2022-10-19T13:38:50.991Z,5.81
2022-10-19T13:41:17.334Z,5.60
2022-10-19T13:43:43.677Z,5.65
2022-10-19T13:46:10.012Z,5.39
2022-10-19T13:48:36.355Z,5.51
2022-10-19T13:51:02.692Z,5.33
2022-10-19T13:53:29.012Z,5.51
2022-10-19T13:55:55.331Z,5.93
2022-10-19T13:58:21.665Z,5.59
2022-10-19T14:00:48.011Z,5.29
2022-10-19T14:03:14.373Z,5.87
2022-10-19T14:05:40.721Z,5.36
2022-10-19T14:08:07.073Z,5.43
2022-10-19T14:10:56.273Z,5.48
2022-10-19T14:13:19.728Z,5.72
2022-10-19T14:15:46.062Z,5.59
2022-10-19T14:18:19.045Z,5.29
2022-10-19T14:20:45.757Z,5.58
2022-10-19T14:23:12.089Z,5.60
2022-10-19T14:25:38.412Z,5.45
2022-10-19T14:28:04.745Z,5.15
2022-10-19T14:30:31.076Z,5.26
2022-10-19T14:33:01.135Z,5.15
2022-10-19T14:35:28.758Z,5.52
2022-10-19T14:37:55.087Z,5.68
2022-10-19T14:40:26.361Z,5.47
2022-10-19T14:42:54.251Z,5.48
2022-10-19T14:45:20.585Z,5.46
2022-10-19T14:47:46.925Z,5.80
2022-10-19T14:50:13.257Z,5.51
2022-10-19T14:52:39.597Z,5.38
2022-10-19T14:55:05.926Z,5.36
2022-10-19T14:57:32.549Z,5.41
2022-10-19T14:59:59.136Z,5.44
2022-10-19T15:02:25.473Z,5.52
2022-10-19T15:04:51.805Z,5.57
2022-10-19T15:07:18.140Z,5.34
2022-10-19T15:09:48.121Z,5.12
2022-10-19T15:12:14.929Z,5.49
2022-10-19T15:14:41.268Z,5.64
2022-10-19T15:17:07.600Z,5.60
2022-10-19T15:19:33.939Z,5.14
2022-10-19T15:22:00.265Z,5.17
2022-10-19T15:24:26.589Z,5.18
2022-10-19T15:27:01.872Z,5.21
2022-10-19T15:29:33.190Z,5.32
2022-10-19T15:31:59.513Z,5.13
2022-10-19T15:34:25.845Z,5.21
2022-10-19T15:36:52.181Z,5.35
2022-10-19T15:39:32.687Z,5.11
2022-10-19T15:42:03.332Z,5.38
2022-10-19T15:44:29.659Z,5.10
2022-10-19T15:46:55.987Z,5.51
2022-10-19T15:49:22.318Z,5.44
2022-10-19T15:51:48.653Z,5.27
2022-10-19T15:54:14.990Z,5.51
2022-10-19T15:56:41.312Z,5.33
2022-10-19T15:59:07.652Z,5.31
2022-10-19T16:01:34.091Z,5.39
2022-10-19T16:04:00.478Z,5.30
2022-10-19T16:06:26.823Z,5.30
2022-10-19T16:08:53.239Z,5.61
2022-10-19T16:11:19.618Z,5.62
2022-10-19T16:13:45.933Z,5.64
2022-10-19T16:16:12.272Z,5.68
2022-10-19T16:18:38.596Z,5.62
2022-10-19T16:21:04.935Z,5.17
2022-10-19T16:23:31.271Z,5.49
2022-10-19T16:25:57.602Z,5.45
2022-10-19T16:28:23.932Z,5.21
2022-10-19T16:30:50.265Z,5.74
2022-10-19T16:33:16.615Z,5.27
2022-10-19T16:35:42.974Z,5.57
2022-10-19T16:38:09.301Z,5.46
2022-10-19T16:40:35.655Z,5.41
2022-10-19T16:43:02.129Z,5.50
2022-10-19T16:45:28.472Z,5.62
2022-10-19T16:47:54.805Z,5.45
2022-10-19T16:50:21.138Z,5.69
2022-10-19T16:52:47.469Z,5.53
2022-10-19T16:55:13.796Z,5.32
2022-10-19T16:57:40.137Z,5.73
2022-10-19T17:00:06.458Z,6.16
2022-10-19T17:02:33.040Z,5.97
2022-10-19T17:04:59.645Z,5.96
2022-10-19T17:07:25.965Z,5.84
2022-10-19T17:09:54.639Z,6.06
2022-10-19T17:12:21.286Z,6.14
2022-10-19T17:14:47.617Z,6.00
2022-10-19T17:17:13.938Z,5.97
2022-10-19T17:19:40.268Z,6.13
2022-10-19T17:22:06.610Z,5.88
2022-10-19T17:24:32.981Z,26.26
2022-10-19T17:26:59.332Z,48.52
2022-10-19T17:29:25.672Z,21.16
2022-10-19T17:31:52.030Z,16.99
2022-10-19T17:34:18.373Z,19.32
2022-10-19T17:36:44.898Z,17.92
2022-10-19T17:39:11.365Z,15.13
2022-10-19T17:41:37.719Z,14.61
2022-10-19T17:44:04.091Z,13.89
2022-10-19T17:46:30.548Z,13.62
2022-10-19T17:48:56.902Z,13.60
2022-10-19T17:51:23.251Z,13.35
2022-10-19T17:53:49.587Z,13.67
2022-10-19T17:56:15.929Z,13.36
2022-10-19T17:58:42.264Z,13.21
2022-10-19T18:01:08.601Z,13.92
2022-10-19T18:03:34.947Z,13.05
2022-10-19T18:06:01.332Z,13.24
2022-10-19T18:08:27.736Z,13.69
2022-10-19T18:10:54.096Z,13.06
2022-10-19T18:13:20.514Z,13.20
2022-10-19T18:15:46.867Z,13.09
2022-10-19T18:18:13.205Z,13.62
2022-10-19T18:20:39.535Z,14.02
2022-10-19T18:23:05.889Z,13.50
2022-10-19T18:25:52.887Z,13.96
2022-10-19T18:28:18.543Z,14.00
2022-10-19T18:30:45.356Z,13.58
2022-10-19T18:33:11.782Z,13.89
2022-10-19T18:35:38.131Z,14.05
2022-10-19T18:38:04.529Z,13.51
2022-10-19T18:40:30.904Z,14.00
2022-10-19T18:42:57.249Z,13.45
2022-10-19T18:45:23.583Z,14.36
2022-10-19T18:47:49.941Z,13.70
2022-10-19T18:52:47.540Z,14.00
2022-10-19T18:55:13.883Z,13.25
2022-10-19T18:57:40.227Z,13.93
2022-10-19T19:00:06.564Z,13.27
2022-10-19T19:02:46.537Z,13.19
2022-10-19T19:05:13.627Z,13.66
2022-10-19T19:07:39.974Z,13.60
2022-10-19T19:10:06.327Z,13.85
2022-10-19T19:12:32.894Z,97.22
2022-10-19T19:14:59.565Z,39.46
2022-10-19T19:17:25.906Z,23.54
2022-10-19T19:19:52.242Z,23.28
2022-10-19T19:22:18.573Z,24.41
2022-10-19T19:24:44.923Z,24.00
2022-10-19T19:27:11.270Z,24.32
2022-10-19T19:29:37.609Z,22.85
2022-10-19T19:32:03.952Z,22.69
2022-10-19T19:34:30.316Z,22.34
2022-10-19T19:36:56.664Z,22.74
2022-10-19T19:39:22.996Z,21.30
2022-10-19T19:41:49.387Z,21.67
2022-10-19T19:44:15.739Z,21.88
2022-10-19T19:46:42.079Z,21.14
2022-10-19T19:49:08.442Z,21.24
2022-10-19T19:51:34.852Z,20.67
2022-10-19T19:54:01.221Z,20.67
2022-10-19T19:56:28.571Z,20.90
2022-10-19T19:58:55.276Z,20.38
2022-10-19T20:01:21.733Z,20.57
2022-10-19T20:03:48.166Z,20.83
2022-10-19T20:06:14.518Z,20.80
2022-10-19T20:08:40.938Z,20.70
2022-10-19T20:11:07.333Z,19.32
2022-10-19T20:13:33.671Z,19.79
2022-10-19T20:16:00.003Z,20.35
2022-10-19T20:18:26.747Z,19.03
2022-10-19T20:20:53.174Z,19.15
2022-10-19T20:23:19.522Z,18.69
2022-10-19T20:25:45.860Z,18.73
2022-10-19T20:28:12.192Z,18.97
2022-10-19T20:30:38.542Z,19.16
2022-10-19T20:33:04.883Z,18.72
2022-10-19T20:35:31.233Z,18.30
2022-10-19T20:37:57.603Z,18.23
2022-10-19T20:40:23.978Z,17.77
2022-10-19T20:42:50.355Z,17.92
2022-10-19T20:45:16.696Z,17.80
2022-10-19T20:47:43.027Z,18.06
2022-10-19T20:50:09.375Z,17.63
2022-10-19T20:52:35.972Z,16.70
2022-10-19T20:55:02.523Z,16.97
2022-10-19T20:57:28.924Z,16.92
2022-10-19T20:59:55.261Z,16.78
2022-10-19T21:02:21.602Z,16.95
2022-10-19T21:04:47.946Z,15.77
2022-10-19T21:07:14.281Z,15.89
2022-10-19T21:09:40.639Z,16.27
2022-10-19T21:12:06.978Z,16.32
2022-10-19T21:14:33.415Z,15.54
2022-10-19T21:16:59.801Z,15.75
2022-10-19T21:19:26.162Z,16.00
2022-10-19T21:21:52.504Z,15.35
2022-10-19T21:24:18.839Z,14.97
2022-10-19T21:26:45.268Z,15.00
2022-10-19T21:29:11.640Z,15.19
2022-10-19T21:31:37.980Z,15.00
2022-10-19T21:34:04.318Z,14.92
2022-10-19T21:36:30.648Z,15.38
2022-10-19T21:38:57.019Z,15.08
2022-10-19T21:41:26.201Z,15.19
2022-10-19T21:43:52.986Z,15.02
2022-10-19T21:46:19.327Z,14.73
2022-10-19T21:48:45.678Z,14.65
2022-10-19T21:51:12.025Z,14.39
2022-10-19T21:53:38.374Z,14.59
2022-10-19T21:56:04.722Z,14.58
2022-10-19T21:58:31.066Z,13.86
2022-10-19T22:00:57.410Z,13.91
2022-10-19T22:03:23.743Z,14.40
2022-10-19T22:05:50.083Z,14.44
2022-10-19T22:08:16.420Z,14.01
2022-10-19T22:10:42.766Z,14.60
2022-10-19T22:13:09.112Z,13.91
2022-10-19T22:15:35.465Z,14.05
2022-10-19T22:18:01.793Z,13.91
2022-10-19T22:20:28.128Z,14.03
2022-10-19T22:22:55.070Z,13.81
2022-10-19T22:25:21.517Z,13.69
2022-10-19T22:27:47.865Z,13.94
2022-10-19T22:30:14.207Z,13.04
2022-10-19T22:32:40.553Z,13.53
2022-10-19T22:35:06.888Z,13.44
2022-10-19T22:37:33.226Z,13.42
2022-10-19T22:39:59.569Z,13.68
2022-10-19T22:42:25.901Z,13.54
2022-10-19T22:44:52.246Z,13.13
2022-10-19T22:47:18.576Z,13.24
2022-10-19T22:49:44.903Z,12.82
2022-10-19T22:52:11.233Z,13.24
2022-10-19T22:54:37.572Z,13.02
2022-10-19T22:57:03.913Z,13.51
2022-10-19T22:59:30.257Z,12.80
2022-10-19T23:01:56.631Z,13.00
2022-10-19T23:04:23.041Z,12.65
2022-10-19T23:06:49.380Z,13.04
2022-10-19T23:09:15.708Z,12.60
2022-10-19T23:11:42.040Z,12.69
2022-10-19T23:14:08.373Z,12.53
2022-10-19T23:16:34.709Z,12.66
2022-10-19T23:19:01.058Z,12.45
2022-10-19T23:21:27.401Z,12.15
2022-10-19T23:23:53.749Z,12.55
2022-10-19T23:26:20.094Z,12.11
2022-10-19T23:28:46.438Z,12.55
2022-10-19T23:31:12.759Z,12.14
2022-10-19T23:33:39.108Z,12.64
2022-10-19T23:36:05.454Z,12.74
2022-10-19T23:38:31.789Z,12.42
2022-10-19T23:40:58.137Z,12.17
2022-10-19T23:43:24.545Z,12.13
2022-10-19T23:45:50.912Z,12.25
2022-10-19T23:48:17.254Z,11.81
2022-10-19T23:50:43.590Z,11.93
2022-10-19T23:53:09.915Z,12.12
2022-10-19T23:55:36.239Z,12.21
2022-10-19T23:58:02.580Z,12.18
